createdAt,value
2018-10-17T00:00:56.933Z,9.70
2018-10-17T00:03:25.715Z,13.30
2018-10-17T00:05:53.248Z,13.63
2018-10-17T00:08:20.792Z,13.47
2018-10-17T00:10:48.592Z,10.17
2018-10-17T00:13:16.571Z,10.13
2018-10-17T00:15:45.155Z,11.20
2018-10-17T00:18:13.096Z,15.90
2018-10-17T00:20:40.592Z,9.20
2018-10-17T00:23:08.766Z,12.47
2018-10-17T00:25:36.744Z,11.43
2018-10-17T00:28:05.437Z,11.30
2018-10-17T00:30:32.982Z,10.97
2018-10-17T00:33:01.179Z,12.70
2018-10-17T00:35:28.695Z,12.43
2018-10-17T00:37:57.122Z,12.17
2018-10-17T00:40:25.338Z,20.47
2018-10-17T00:42:54.181Z,18.87
2018-10-17T00:45:22.308Z,11.40
2018-10-17T00:47:50.267Z,10.73
2018-10-17T00:50:17.789Z,15.77
2018-10-17T00:52:45.325Z,15.73
2018-10-17T00:55:14.248Z,14.47
2018-10-17T00:57:41.705Z,14.37
2018-10-17T01:00:10.531Z,17.37
2018-10-17T01:02:38.056Z,12.53
2018-10-17T01:05:05.703Z,14.77
2018-10-17T01:07:33.532Z,11.33
2018-10-17T01:10:01.075Z,10.70
2018-10-17T01:12:29.064Z,17.60
2018-10-17T01:14:56.576Z,14.17
2018-10-17T01:17:24.824Z,12.30
2018-10-17T01:19:52.835Z,14.57
2018-10-17T01:22:20.348Z,14.70
2018-10-17T01:24:48.520Z,15.07
2018-10-17T01:27:16.600Z,19.73
2018-10-17T01:29:45.000Z,18.03
2018-10-17T01:32:12.519Z,13.50
2018-10-17T01:34:40.044Z,13.90
2018-10-17T01:37:08.898Z,13.30
2018-10-17T01:39:37.196Z,12.00
2018-10-17T01:42:05.524Z,12.00
2018-10-17T01:44:33.023Z,11.80
2018-10-17T01:47:00.554Z,10.10
2018-10-17T01:49:28.692Z,11.90
2018-10-17T01:51:56.203Z,15.13
2018-10-17T01:54:23.748Z,14.10
2018-10-17T01:56:53.415Z,13.90
2018-10-17T01:59:20.932Z,13.80
2018-10-17T02:01:48.441Z,14.40
2018-10-17T02:04:16.418Z,13.80
2018-10-17T02:06:43.931Z,15.60
2018-10-17T02:09:12.157Z,16.30
2018-10-17T02:11:39.642Z,13.37
2018-10-17T02:14:07.342Z,13.87
2018-10-17T02:16:35.779Z,20.03
2018-10-17T02:19:04.098Z,17.47
2018-10-17T02:21:31.608Z,17.20
2018-10-17T02:24:00.815Z,16.50
2018-10-17T02:26:28.899Z,17.10
2018-10-17T02:28:56.478Z,14.40
2018-10-17T02:31:23.928Z,17.80
2018-10-17T02:33:52.575Z,14.00
2018-10-17T02:36:20.072Z,17.60
2018-10-17T02:38:48.160Z,18.00
2018-10-17T02:41:16.183Z,18.67
2018-10-17T02:43:44.720Z,17.50
2018-10-17T02:46:12.746Z,14.57
2018-10-17T02:48:40.588Z,14.50
2018-10-17T02:51:08.150Z,14.30
2018-10-17T02:53:36.613Z,19.40
2018-10-17T02:56:04.282Z,17.67
2018-10-17T02:58:31.968Z,16.70
2018-10-17T03:00:59.630Z,16.23
2018-10-17T03:03:27.120Z,18.53
2018-10-17T03:05:56.596Z,14.20
2018-10-17T03:08:24.139Z,13.77
2018-10-17T03:10:51.708Z,17.03
2018-10-17T03:13:19.581Z,13.33
2018-10-17T03:15:47.761Z,13.57
2018-10-17T03:18:16.763Z,12.80
2018-10-17T03:20:44.268Z,21.73
2018-10-17T03:23:11.855Z,15.33
2018-10-17T03:25:40.017Z,18.07
2018-10-17T03:28:08.394Z,16.97
2018-10-17T03:30:35.748Z,17.63
2018-10-17T03:33:04.252Z,16.10
2018-10-17T03:35:32.867Z,15.57
2018-10-17T03:38:01.081Z,13.80
2018-10-17T03:40:28.600Z,19.00
2018-10-17T03:42:56.852Z,14.43
2018-10-17T03:45:24.345Z,16.70
2018-10-17T03:47:53.476Z,17.23
2018-10-17T03:50:20.980Z,16.03
2018-10-17T03:52:49.212Z,22.27
2018-10-17T03:55:16.730Z,18.27
2018-10-17T03:57:44.232Z,16.97
2018-10-17T04:00:12.005Z,12.23
2018-10-17T04:02:39.668Z,15.53
2018-10-17T04:05:08.651Z,11.93
2018-10-17T04:07:36.162Z,14.27
2018-10-17T04:10:04.037Z,15.27
2018-10-17T04:12:32.008Z,15.70
2018-10-17T04:14:59.683Z,12.50
2018-10-17T04:17:28.204Z,17.93
2018-10-17T04:19:56.837Z,18.60
2018-10-17T04:22:25.111Z,16.70
2018-10-17T04:24:54.298Z,22.77
2018-10-17T04:27:22.848Z,17.60
2018-10-17T04:29:50.924Z,17.73
2018-10-17T04:32:18.460Z,17.17
2018-10-17T04:34:46.016Z,21.00
2018-10-17T04:37:14.759Z,15.37
2018-10-17T04:39:42.240Z,21.60
2018-10-17T04:42:10.173Z,19.70
2018-10-17T04:44:37.770Z,17.70
2018-10-17T04:47:05.312Z,12.67
2018-10-17T04:49:33.323Z,16.63
2018-10-17T04:52:00.831Z,16.73
2018-10-17T04:54:28.408Z,14.00
2018-10-17T04:56:55.952Z,17.93
2018-10-17T04:59:23.448Z,18.33
2018-10-17T05:01:51.562Z,15.57
2018-10-17T05:04:19.077Z,19.40
2018-10-17T05:06:46.658Z,17.83
2018-10-17T05:09:14.570Z,17.13
2018-10-17T05:11:42.847Z,17.67
2018-10-17T05:14:10.871Z,12.27
2018-10-17T05:16:38.875Z,20.83
2018-10-17T05:19:07.048Z,22.63
2018-10-17T05:21:34.815Z,13.17
2018-10-17T05:24:03.219Z,13.63
2018-10-17T05:26:31.215Z,13.07
2018-10-17T05:28:58.756Z,12.03
2018-10-17T05:31:26.371Z,13.33
2018-10-17T05:33:54.087Z,22.23
2018-10-17T05:36:21.612Z,13.00
2018-10-17T05:38:49.591Z,16.50
2018-10-17T05:41:17.856Z,20.40
2018-10-17T05:43:45.995Z,16.17
2018-10-17T05:46:14.272Z,20.50
2018-10-17T05:48:42.433Z,19.67
2018-10-17T05:51:09.968Z,17.50
2018-10-17T05:53:37.461Z,14.60
2018-10-17T05:56:05.140Z,16.57
2018-10-17T05:58:32.651Z,18.03
2018-10-17T06:01:01.932Z,13.97
2018-10-17T06:03:29.824Z,15.87
2018-10-17T06:05:57.315Z,16.60
2018-10-17T06:08:25.615Z,14.77
2018-10-17T06:10:53.153Z,17.37
2018-10-17T06:13:21.572Z,14.57
2018-10-17T06:15:50.624Z,16.90
2018-10-17T06:18:19.261Z,16.53
2018-10-17T06:20:46.771Z,17.87
2018-10-17T06:23:15.108Z,24.20
2018-10-17T06:25:43.384Z,17.20
2018-10-17T06:28:11.627Z,15.53
2018-10-17T06:30:39.684Z,15.83
2018-10-17T06:33:07.963Z,17.77
2018-10-17T06:35:35.794Z,16.07
2018-10-17T06:38:04.177Z,19.63
2018-10-17T06:40:32.418Z,15.67
2018-10-17T06:43:00.186Z,18.83
2018-10-17T06:45:28.205Z,23.07
2018-10-17T06:47:56.149Z,16.90
2018-10-17T06:50:23.692Z,14.70
2018-10-17T06:52:51.282Z,23.30
2018-10-17T06:55:18.881Z,15.07
2018-10-17T06:57:47.203Z,15.27
2018-10-17T07:00:14.774Z,14.57
2018-10-17T07:02:42.280Z,16.87
2018-10-17T07:05:10.742Z,14.30
2018-10-17T07:07:38.475Z,17.20
2018-10-17T07:10:06.698Z,16.00
2018-10-17T07:12:34.491Z,19.80
2018-10-17T07:15:02.825Z,15.00
2018-10-17T07:17:31.046Z,27.10
2018-10-17T07:19:58.553Z,22.30
2018-10-17T07:22:26.898Z,18.87
2018-10-17T07:24:55.007Z,19.10
2018-10-17T07:27:23.041Z,20.00
2018-10-17T07:29:50.709Z,18.23
2018-10-17T07:32:18.108Z,18.67
2018-10-17T07:34:45.768Z,21.43
2018-10-17T07:37:13.740Z,19.47
2018-10-17T07:39:41.242Z,19.07
2018-10-17T07:42:09.324Z,20.93
2018-10-17T07:44:37.073Z,14.97
2018-10-17T07:47:05.204Z,14.53
2018-10-17T07:49:33.081Z,15.20
2018-10-17T07:52:00.595Z,18.20
2018-10-17T07:54:28.714Z,18.20
2018-10-17T07:56:56.228Z,19.30
2018-10-17T07:59:23.724Z,17.20
2018-10-17T08:01:51.980Z,17.33
2018-10-17T08:04:20.188Z,17.37
2018-10-17T08:06:47.855Z,20.43
2018-10-17T08:09:15.292Z,16.10
2018-10-17T08:11:43.605Z,18.27
2018-10-17T08:14:11.152Z,12.60
2018-10-17T08:16:39.549Z,16.23
2018-10-17T08:19:07.060Z,14.23
2018-10-17T08:21:34.722Z,14.37
2018-10-17T08:24:03.283Z,14.63
2018-10-17T08:26:31.436Z,13.20
2018-10-17T08:28:58.956Z,16.53
2018-10-17T08:31:26.488Z,14.13
2018-10-17T08:33:54.044Z,13.93
2018-10-17T08:36:21.746Z,12.13
2018-10-17T08:38:49.599Z,17.80
2018-10-17T08:41:18.283Z,15.77
2018-10-17T08:43:45.850Z,13.70
2018-10-17T08:46:14.069Z,14.40
2018-10-17T08:48:43.017Z,13.97
2018-10-17T08:51:10.584Z,13.50
2018-10-17T08:53:38.542Z,18.07
2018-10-17T08:56:06.127Z,12.80
2018-10-17T08:58:33.604Z,13.40
2018-10-17T09:01:02.206Z,10.87
2018-10-17T09:03:29.709Z,10.23
2018-10-17T09:05:57.620Z,15.27
2018-10-17T09:08:25.236Z,10.77
2018-10-17T09:10:53.151Z,14.73
2018-10-17T09:13:20.705Z,13.40
2018-10-17T09:15:48.672Z,11.97
2018-10-17T09:18:17.878Z,13.23
2018-10-17T09:20:46.450Z,10.90
2018-10-17T09:23:13.668Z,13.30
2018-10-17T09:25:42.207Z,11.97
2018-10-17T09:28:10.211Z,11.67
2018-10-17T09:30:37.778Z,10.77
2018-10-17T09:33:05.556Z,15.23
2018-10-17T09:35:33.341Z,11.60
2018-10-17T09:38:01.564Z,10.87
2018-10-17T09:40:29.064Z,14.20
2018-10-17T09:42:56.573Z,11.43
2018-10-17T09:45:24.260Z,11.70
2018-10-17T09:47:52.308Z,10.70
2018-10-17T09:50:20.332Z,14.10
2018-10-17T09:52:47.876Z,11.80
2018-10-17T09:55:16.555Z,14.00
2018-10-17T10:03:30.440Z,9.77
2018-10-17T10:05:57.959Z,9.70
2018-10-17T10:08:26.080Z,12.97
2018-10-17T10:10:53.621Z,12.17
2018-10-17T10:13:21.123Z,12.10
2018-10-17T10:24:28.144Z,10.30
2018-10-17T10:26:55.649Z,9.77
2018-10-17T10:29:23.147Z,18.10
2018-10-17T10:31:50.826Z,8.87
2018-10-17T10:34:19.294Z,10.50
2018-10-17T10:36:47.268Z,11.97
2018-10-17T10:39:14.779Z,11.10
2018-10-17T10:41:42.273Z,12.43
2018-10-17T10:44:11.121Z,12.57
2018-10-17T10:46:39.563Z,8.10
2018-10-17T10:49:07.578Z,7.43
2018-10-17T10:51:35.109Z,14.33
2018-10-17T10:54:02.754Z,13.33
2018-10-17T10:56:31.025Z,17.30
2018-10-17T10:58:58.658Z,10.83
2018-10-17T11:01:26.162Z,12.70
2018-10-17T11:03:53.933Z,9.67
2018-10-17T11:06:21.852Z,10.10
2018-10-17T11:08:49.384Z,8.93
2018-10-17T11:11:16.962Z,10.00
2018-10-17T11:13:44.634Z,10.00
2018-10-17T11:16:12.877Z,16.57
2018-10-17T11:18:40.884Z,15.20
2018-10-17T11:21:08.567Z,13.87
2018-10-17T11:23:36.037Z,12.13
2018-10-17T11:26:05.117Z,13.07
2018-10-17T11:28:32.650Z,18.53
2018-10-17T11:31:01.432Z,13.07
2018-10-17T11:33:29.621Z,12.40
2018-10-17T11:35:57.301Z,13.13
2018-10-17T11:38:25.400Z,11.77
2018-10-17T11:40:52.908Z,14.67
2018-10-17T11:43:20.443Z,12.33
2018-10-17T11:45:50.013Z,13.00
2018-10-17T11:48:18.192Z,14.50
2018-10-17T11:50:45.745Z,21.00
2018-10-17T11:53:14.345Z,17.70
2018-10-17T11:55:41.852Z,18.10
2018-10-17T11:58:09.461Z,14.20
2018-10-17T12:00:37.822Z,16.03
2018-10-17T12:03:06.581Z,14.10
2018-10-17T12:05:34.807Z,13.40
2018-10-17T12:08:02.050Z,15.70
2018-10-17T12:10:29.632Z,14.93
2018-10-17T12:12:58.540Z,17.80
2018-10-17T12:15:26.808Z,14.57
2018-10-17T12:17:55.155Z,16.53
2018-10-17T12:20:22.624Z,19.97
2018-10-17T12:22:50.255Z,19.10
2018-10-17T12:25:18.356Z,16.33
2018-10-17T12:27:45.984Z,15.07
2018-10-17T12:30:14.881Z,16.33
2018-10-17T12:32:42.469Z,17.53
2018-10-17T12:35:10.293Z,15.17
2018-10-17T12:37:38.184Z,15.17
2018-10-17T12:40:07.599Z,17.47
2018-10-17T12:42:35.657Z,17.07
2018-10-17T12:45:03.352Z,18.10
2018-10-17T12:47:30.859Z,17.10
2018-10-17T12:49:59.351Z,14.70
2018-10-17T12:52:28.108Z,18.00
2018-10-17T12:54:55.732Z,17.50
2018-10-17T12:57:23.236Z,18.50
2018-10-17T12:59:51.383Z,15.03
2018-10-17T13:02:19.543Z,25.67
2018-10-17T13:04:47.072Z,17.73
2018-10-17T13:07:15.267Z,17.57
2018-10-17T13:09:43.699Z,16.07
2018-10-17T13:12:11.244Z,17.40
2018-10-17T13:14:39.742Z,21.77
2018-10-17T13:17:08.252Z,17.77
2018-10-17T13:19:36.245Z,19.50
2018-10-17T13:22:03.981Z,17.40
2018-10-17T13:24:32.177Z,18.10
2018-10-17T13:27:00.629Z,14.90
2018-10-17T13:29:28.641Z,18.83
2018-10-17T13:31:56.634Z,19.53
2018-10-17T13:34:25.025Z,20.20
2018-10-17T13:36:53.183Z,18.93
2018-10-17T13:39:21.121Z,22.10
2018-10-17T13:41:50.151Z,20.73
2018-10-17T13:44:18.104Z,23.70
2018-10-17T13:46:46.059Z,20.23
2018-10-17T13:49:14.165Z,18.23
2018-10-17T13:51:42.413Z,17.67
2018-10-17T13:54:10.140Z,14.77
2018-10-17T13:56:38.323Z,16.47
2018-10-17T13:59:06.412Z,14.47
2018-10-17T14:01:33.941Z,18.30
2018-10-17T14:04:03.004Z,17.03
2018-10-17T14:06:30.526Z,15.70
2018-10-17T14:08:59.088Z,15.00
2018-10-17T14:11:26.778Z,17.27
2018-10-17T14:13:54.348Z,18.57
2018-10-17T14:16:22.509Z,11.17
2018-10-17T14:18:50.531Z,12.83
2018-10-17T14:21:18.787Z,18.10
2018-10-17T14:23:47.608Z,12.60
2018-10-17T14:26:15.776Z,12.03
2018-10-17T14:28:44.163Z,12.33
2018-10-17T14:31:11.704Z,12.37
2018-10-17T14:33:39.373Z,10.73
2018-10-17T14:36:07.235Z,13.03
2018-10-17T14:38:35.816Z,10.30
2018-10-17T14:41:03.573Z,12.53
2018-10-17T14:43:31.096Z,10.60
2018-10-17T14:45:59.335Z,9.77
2018-10-17T14:48:27.657Z,12.27
2018-10-17T14:50:55.249Z,10.47
2018-10-17T14:53:22.757Z,12.50
2018-10-17T14:55:51.215Z,12.70
2018-10-17T14:58:18.731Z,12.97
2018-10-17T15:00:46.641Z,11.37
2018-10-17T15:03:14.402Z,9.50
2018-10-17T15:05:42.549Z,11.23
2018-10-17T15:08:10.410Z,11.40
2018-10-17T15:10:38.532Z,17.33
2018-10-17T15:13:06.528Z,13.97
2018-10-17T15:15:39.032Z,8.40
2018-10-17T15:18:07.424Z,9.37
2018-10-17T15:20:36.320Z,11.93
2018-10-17T15:23:04.694Z,10.07
2018-10-17T15:25:32.831Z,9.00
2018-10-17T15:28:00.388Z,10.13
2018-10-17T15:30:27.899Z,11.63
2018-10-17T15:32:56.306Z,9.30
2018-10-17T15:35:24.416Z,11.17
2018-10-17T15:37:52.744Z,13.17
2018-10-17T15:40:20.252Z,12.30
2018-10-17T15:42:47.763Z,10.27
2018-10-17T15:45:15.957Z,9.10
2018-10-17T15:47:44.008Z,9.60
2018-10-17T15:50:11.521Z,9.47
2018-10-17T15:52:39.886Z,11.53
2018-10-17T15:55:07.427Z,13.27
2018-10-17T15:57:35.616Z,10.90
2018-10-17T16:00:03.773Z,9.13
2018-10-17T16:02:31.794Z,11.67
2018-10-17T16:04:59.848Z,9.27
2018-10-17T16:07:27.969Z,10.50
2018-10-17T16:09:56.000Z,19.20
2018-10-17T16:12:24.125Z,13.10
2018-10-17T16:14:52.669Z,12.40
2018-10-17T16:17:20.836Z,12.40
2018-10-17T16:19:49.376Z,13.60
2018-10-17T16:22:16.993Z,9.43
2018-10-17T16:24:45.072Z,10.93
2018-10-17T16:27:12.582Z,9.57
2018-10-17T16:29:40.145Z,9.13
2018-10-17T16:32:07.972Z,13.00
2018-10-17T16:34:36.372Z,15.23
2018-10-17T16:37:05.433Z,9.67
2018-10-17T16:39:32.940Z,9.07
2018-10-17T16:42:01.823Z,11.20
2018-10-17T16:44:30.019Z,12.70
2018-10-17T16:46:57.540Z,14.80
2018-10-17T16:49:28.796Z,13.47
2018-10-17T16:51:57.280Z,13.93
2018-10-17T16:54:24.862Z,13.17
2018-10-17T16:56:53.707Z,15.40
2018-10-17T16:59:21.256Z,11.33
2018-10-17T17:01:49.420Z,11.90
2018-10-17T17:04:17.434Z,15.40
2018-10-17T17:06:46.134Z,13.10
2018-10-17T17:09:13.723Z,13.50
2018-10-17T17:11:41.899Z,18.10
2018-10-17T17:14:11.326Z,12.57
2018-10-17T17:16:39.386Z,11.73
2018-10-17T17:19:07.492Z,12.90
2018-10-17T17:21:38.456Z,13.73
2018-10-17T17:24:06.428Z,11.13
2018-10-17T17:26:35.161Z,13.43
2018-10-17T17:29:03.116Z,21.73
2018-10-17T17:31:31.947Z,11.60
2018-10-17T17:34:00.544Z,10.63
2018-10-17T17:36:31.168Z,15.83
2018-10-17T17:38:59.493Z,15.30
2018-10-17T17:41:27.048Z,18.60
2018-10-17T17:43:56.904Z,17.43
2018-10-17T17:46:24.423Z,12.07
2018-10-17T17:48:53.281Z,10.43
2018-10-17T17:51:20.801Z,14.57
2018-10-17T17:53:48.440Z,13.03
2018-10-17T17:56:15.977Z,17.40
2018-10-17T17:58:45.829Z,14.03
2018-10-17T18:01:13.312Z,13.33
2018-10-17T18:03:41.240Z,15.80
2018-10-17T18:06:09.392Z,11.60
2018-10-17T18:08:36.923Z,16.10
2018-10-17T18:11:19.113Z,13.47
2018-10-17T18:13:47.132Z,15.73
2018-10-17T18:16:15.610Z,16.90
2018-10-17T18:18:44.196Z,18.37
2018-10-17T18:21:12.433Z,16.20
2018-10-17T18:23:40.551Z,15.30
2018-10-17T18:26:09.209Z,17.13
2018-10-17T18:28:37.408Z,17.60
2018-10-17T18:31:05.032Z,15.33
2018-10-17T18:33:32.954Z,16.40
2018-10-17T18:36:01.161Z,15.80
2018-10-17T18:38:30.132Z,15.67
2018-10-17T18:40:58.518Z,16.17
2018-10-17T18:43:28.248Z,15.87
2018-10-17T18:45:57.650Z,18.30
2018-10-17T18:48:26.181Z,23.60
2018-10-17T18:50:53.817Z,20.37
2018-10-17T18:53:21.501Z,23.03
2018-10-17T18:55:49.850Z,16.47
2018-10-17T18:58:17.409Z,19.20
2018-10-17T19:00:45.587Z,14.37
2018-10-17T19:03:13.976Z,17.13
2018-10-17T19:05:41.953Z,15.33
2018-10-17T19:08:09.659Z,14.03
2018-10-17T19:10:38.537Z,15.80
2018-10-17T19:13:06.897Z,15.13
2018-10-17T19:15:36.265Z,12.97
2018-10-17T19:18:05.093Z,12.13
2018-10-17T19:20:32.779Z,13.20
2018-10-17T19:23:00.400Z,13.07
2018-10-17T19:25:28.828Z,18.43
2018-10-17T19:27:57.091Z,16.97
2018-10-17T19:30:25.379Z,18.23
2018-10-17T19:32:53.489Z,12.77
2018-10-17T19:35:21.959Z,14.20
2018-10-17T19:37:50.844Z,14.00
2018-10-17T19:40:18.435Z,17.60
2018-10-17T19:42:46.981Z,15.90
2018-10-17T19:45:15.269Z,16.20
2018-10-17T19:47:43.251Z,17.10
2018-10-17T19:50:11.056Z,17.63
2018-10-17T19:52:38.621Z,16.87
2018-10-17T19:55:07.941Z,16.10
2018-10-17T19:57:35.451Z,18.50
2018-10-17T20:00:03.256Z,14.70
2018-10-17T20:02:31.307Z,14.87
2018-10-17T20:04:59.072Z,17.03
2018-10-17T20:07:26.776Z,13.17
2018-10-17T20:09:54.689Z,15.40
2018-10-17T20:12:22.757Z,13.60
2018-10-17T20:14:51.043Z,13.20
2018-10-17T20:17:19.408Z,17.57
2018-10-17T20:19:47.029Z,17.60
2018-10-17T20:22:15.072Z,18.20
2018-10-17T20:24:43.358Z,18.93
2018-10-17T20:27:10.991Z,16.80
2018-10-17T20:29:39.671Z,15.53
2018-10-17T20:32:08.402Z,23.07
2018-10-17T20:34:36.091Z,19.03
2018-10-17T20:37:04.762Z,14.87
2018-10-17T20:39:32.543Z,17.20
2018-10-17T20:42:01.509Z,14.00
2018-10-17T20:44:29.592Z,14.60
2018-10-17T20:46:58.060Z,16.07
2018-10-17T20:49:26.714Z,17.37
2018-10-17T20:51:54.319Z,14.07
2018-10-17T20:54:21.954Z,22.30
2018-10-17T20:56:49.872Z,20.07
2018-10-17T20:59:17.434Z,15.70
2018-10-17T21:01:46.174Z,12.83
2018-10-17T21:04:14.421Z,13.87
2018-10-17T21:06:43.199Z,24.57
2018-10-17T21:09:13.228Z,15.80
2018-10-17T21:11:41.067Z,18.07
2018-10-17T21:14:09.648Z,19.23
2018-10-17T21:16:38.001Z,16.83
2018-10-17T21:19:05.880Z,14.63
2018-10-17T21:21:34.224Z,12.33
2018-10-17T21:24:02.701Z,14.33
2018-10-17T21:26:30.219Z,18.17
2018-10-17T21:28:57.752Z,16.37
2018-10-17T21:31:26.231Z,17.97
2018-10-17T21:33:53.764Z,15.43
2018-10-17T21:36:22.231Z,15.83
2018-10-17T21:38:50.337Z,14.03
2018-10-17T21:41:17.858Z,12.27
2018-10-17T21:43:47.000Z,17.27
2018-10-17T21:46:15.209Z,15.23
2018-10-17T21:48:43.571Z,14.53
2018-10-17T21:51:12.060Z,15.37
2018-10-17T21:53:39.577Z,17.40
2018-10-17T21:56:07.144Z,17.30
2018-10-17T21:58:35.259Z,26.47
2018-10-17T22:01:02.800Z,17.83
2018-10-17T22:03:31.123Z,15.93
2018-10-17T22:05:59.280Z,23.10
2018-10-17T22:08:26.791Z,23.43
2018-10-17T22:10:55.126Z,34.53
2018-10-17T22:13:23.915Z,34.60
2018-10-17T22:15:51.978Z,34.43
2018-10-17T22:18:20.384Z,33.43
2018-10-17T22:20:47.880Z,32.63
2018-10-17T22:23:15.930Z,27.70
2018-10-17T22:25:44.094Z,24.37
2018-10-17T22:28:12.779Z,22.97
2018-10-17T22:30:41.071Z,20.97
2018-10-17T22:33:08.656Z,20.20
2018-10-17T22:35:37.017Z,16.80
2018-10-17T22:38:05.568Z,23.63
2018-10-17T22:40:33.041Z,23.10
2018-10-17T22:43:01.241Z,21.40
2018-10-17T22:45:28.734Z,21.27
2018-10-17T22:47:56.656Z,21.23
2018-10-17T22:50:24.144Z,19.23
2018-10-17T22:52:51.651Z,17.43
2018-10-17T22:55:19.337Z,16.20
2018-10-17T22:57:46.731Z,16.90
2018-10-17T23:00:14.396Z,14.97
2018-10-17T23:02:42.572Z,20.77
2018-10-17T23:05:10.755Z,24.50
2018-10-17T23:07:38.250Z,17.50
2018-10-17T23:10:05.899Z,18.73
2018-10-17T23:12:33.701Z,14.37
2018-10-17T23:15:04.862Z,15.87
2018-10-17T23:17:32.972Z,16.87
2018-10-17T23:20:00.514Z,18.17
2018-10-17T23:22:28.840Z,18.77
2018-10-17T23:24:57.096Z,19.23
2018-10-17T23:27:24.635Z,20.23
2018-10-17T23:29:52.110Z,28.17
2018-10-17T23:32:20.317Z,18.10
2018-10-17T23:34:48.244Z,19.17
2018-10-17T23:37:16.195Z,16.90
2018-10-17T23:39:44.233Z,19.07
2018-10-17T23:42:11.930Z,19.93
2018-10-17T23:44:40.289Z,18.87
2018-10-17T23:47:07.812Z,18.10
2018-10-17T23:49:35.772Z,19.07
2018-10-17T23:52:03.691Z,15.83
2018-10-17T23:54:31.195Z,14.80
2018-10-17T23:56:58.739Z,17.67
2018-10-17T23:59:27.408Z,17.30
